Airfield :
LOGIN :

Register | Disclaimer

   EN    FR    IT 

 










Legend :    VFR   Marginal VFR   IFR   Intensive IFR   Very Intensive IFR
Visi :
Ceiling :
>= 8 km
>= 3000ft
5 to 8 km
1000 to 3000 ft
1500m to 5 km
500 to 1000 ft
800 to 1500m
200 to 500 ft
< 800m
< 200 ft
Symbols :   Thunderstorms  Fog  Heavy snow  Heavy precipitations  Wind > 20 kt
SIGMETs :     Misc.  Thunderstorms  Icing  Turbulence  Mountain Waves  Volcanic Ashes






- Airport Elevation : 20 ft
- IATA code : LSI


EGPB - Sumburgh

CURRENT METAR :
  • 230750Z 21013KT 8000 -RA FEW012 SCT020 BKN038 11/10 Q1003 TEMPO RADZ BKN014

EXPIRED METARs :
  • 230720Z 21014KT 9999 FEW014 BKN020 12/10 Q1003 TEMPO RADZ BKN014
  • 230650Z 21015KT 9999 BKN020 12/10 Q1003 TEMPO RADZ BKN014
  • 230620Z 22015KT 9999 BKN018 12/10 Q1003 TEMPO RADZ BKN014
  • 230550Z 22013KT 9999 BKN018 12/10 Q1003
  • 230520Z 22015KT 9999 BKN018 12/10 Q1004 NOSIG

TAF TAF EGPB
Valid from the 23 at 06:00 until the 23 at 15:00 UTC


230459Z 2306/2315 22017KT 9999 SCT012 BKN030
TEMPO 2306/2315 23020G30KT 6000 -RADZ BKN010
PROB30
TEMPO 2306/2312 RADZ BKN004



MET'MAP, your aeronautical weather chart ! - Copyright ORBIFLY December 2007 - Disclaimer

ORBIFLY MET'MAP TEAM :

Programming & Development : Alexandra Zaïnal
Concept & Development : Baudouin d'Aumeries
Co-Development & Prog : Marc-Olivier Méhu
Technical & hardware support : Manuel Goepfert

Contact : metmap@orbifly.com




SOURCES & CREDITS :

   NOAA